HSNN

Nyala Airport

Nyala, Sudan
METAR HSNN 181700Z 04003KT CAVOK 26/05 Q1011
Observed Flight Rules
Dec-18 @ 17:00 UTC (3 hours ago) Visual Flight Rules
Wind Visibility Clouds
40° at 3 knots 10,000+ meters
  • Clear skies
Temperatures Readings
Current 26°C / 79°F
Dewpoint 5°C / 41°F
Humidity 26%
Altimeter 29.85" Hg
Pressure 1011 hPa
Elevation 658
METAR HSNN 181700Z 04003KT CAVOK 26/05 Q1011
Observed Flight Rules
Dec-18 @ 17:00 UTC
(3 hours ago)
VFR
Wind Visibility
40° at 3 knots 10,000+ meters
Clouds
  • Clear skies
Temperature Dewpoint
26°C / 79°F 5°C / 41°F
Humidity Altimeter Pressure
26% 29.85" Hg 1011 hPa